createdAt,value
2022-10-08T00:01:18.435Z,60.70
2022-10-08T00:03:47.895Z,60.60
2022-10-08T00:06:17.738Z,60.60
2022-10-08T00:08:50.336Z,60.80
2022-10-08T00:11:20.720Z,60.50
2022-10-08T00:13:50.952Z,60.70
2022-10-08T00:16:32.457Z,60.50
2022-10-08T00:19:03.730Z,60.90
2022-10-08T00:21:39.537Z,60.60
2022-10-08T00:24:08.339Z,60.50
2022-10-08T00:26:41.125Z,62.10
2022-10-08T00:29:16.973Z,61.10
2022-10-08T00:31:46.157Z,60.70
2022-10-08T00:34:20.160Z,60.60
2022-10-08T00:36:51.774Z,60.70
2022-10-08T00:39:22.481Z,60.50
2022-10-08T00:41:53.232Z,60.50
2022-10-08T00:44:54.257Z,60.40
2022-10-08T00:47:33.436Z,60.50
2022-10-08T00:50:15.552Z,60.50
2022-10-08T00:52:55.347Z,60.30
2022-10-08T00:55:24.870Z,60.20
2022-10-08T00:57:52.969Z,60.20
2022-10-08T01:00:23.521Z,59.90
2022-10-08T01:02:51.344Z,59.80
2022-10-08T01:05:26.768Z,59.80
2022-10-08T01:08:14.635Z,59.70
2022-10-08T01:11:06.696Z,59.80
2022-10-08T01:14:04.305Z,59.90
2022-10-08T01:16:56.508Z,60.00
2022-10-08T01:19:51.027Z,60.00
2022-10-08T01:22:38.846Z,60.20
2022-10-08T01:25:32.899Z,60.40
2022-10-08T01:28:17.263Z,60.60
2022-10-08T01:31:31.211Z,60.60
2022-10-08T01:34:13.375Z,60.70
2022-10-08T01:36:47.269Z,60.70
2022-10-08T01:39:22.198Z,60.40
2022-10-08T01:41:53.659Z,60.40
2022-10-08T01:44:28.934Z,60.30
2022-10-08T01:46:59.346Z,60.10
2022-10-08T01:49:35.350Z,60.10
2022-10-08T01:52:12.614Z,60.00
2022-10-08T01:54:44.480Z,59.90
2022-10-08T01:57:11.949Z,59.90
2022-10-08T02:00:03.182Z,60.00
2022-10-08T02:02:39.770Z,60.00
2022-10-08T02:05:07.916Z,59.90
2022-10-08T02:07:38.704Z,60.70
2022-10-08T02:10:11.500Z,60.00
2022-10-08T02:12:42.502Z,60.10
2022-10-08T02:15:14.665Z,60.20
2022-10-08T02:18:31.203Z,60.20
2022-10-08T02:21:07.891Z,60.60
2022-10-08T02:23:52.991Z,60.40
2022-10-08T02:26:26.819Z,60.50
2022-10-08T02:28:57.226Z,60.50
2022-10-08T02:31:33.566Z,60.50
2022-10-08T02:34:12.682Z,60.70
2022-10-08T02:36:45.901Z,60.70
2022-10-08T02:39:16.192Z,60.70
2022-10-08T02:41:50.799Z,60.70
2022-10-08T02:44:30.470Z,60.60
2022-10-08T02:47:00.936Z,60.60
2022-10-08T02:49:37.183Z,60.60
2022-10-08T02:52:08.668Z,60.60
2022-10-08T02:54:41.597Z,60.50
2022-10-08T02:57:31.252Z,60.70
2022-10-08T02:59:59.086Z,60.80
2022-10-08T03:02:37.003Z,60.70
2022-10-08T03:05:09.916Z,60.80
2022-10-08T03:07:37.503Z,60.90
2022-10-08T03:10:09.037Z,61.00
2022-10-08T03:12:36.059Z,61.00
2022-10-08T03:15:05.009Z,60.90
2022-10-08T03:17:38.324Z,60.90
2022-10-08T03:20:07.464Z,60.90
2022-10-08T03:22:35.141Z,60.90
2022-10-08T03:25:02.116Z,61.00
2022-10-08T03:27:29.305Z,61.20
2022-10-08T03:29:59.451Z,61.20
2022-10-08T03:32:27.430Z,61.40
2022-10-08T03:34:54.472Z,61.60
2022-10-08T03:37:21.622Z,61.50
2022-10-08T03:39:49.318Z,61.60
2022-10-08T03:42:17.232Z,61.70
2022-10-08T03:44:45.227Z,61.90
2022-10-08T03:47:12.448Z,61.90
2022-10-08T03:49:40.060Z,62.00
2022-10-08T03:52:07.076Z,62.10
2022-10-08T03:54:35.998Z,62.20
2022-10-08T03:57:03.799Z,62.10
2022-10-08T03:59:31.059Z,62.20
2022-10-08T04:01:58.281Z,62.30
2022-10-08T04:04:25.958Z,62.20
2022-10-08T04:06:54.182Z,62.30
2022-10-08T04:09:21.366Z,62.90
2022-10-08T04:11:48.446Z,62.20
2022-10-08T04:14:15.463Z,62.40
2022-10-08T04:16:42.583Z,62.20
2022-10-08T04:19:11.839Z,62.20
2022-10-08T04:21:38.943Z,62.00
2022-10-08T04:24:09.815Z,62.00
2022-10-08T04:26:36.819Z,62.00
2022-10-08T04:29:04.493Z,61.90
2022-10-08T04:31:31.504Z,62.00
2022-10-08T04:33:58.486Z,62.20
2022-10-08T04:36:25.761Z,62.10
2022-10-08T04:38:53.368Z,62.30
2022-10-08T04:41:23.337Z,62.40
2022-10-08T04:43:51.448Z,62.50
2022-10-08T04:46:20.444Z,62.40
2022-10-08T04:48:49.507Z,62.40
2022-10-08T04:51:17.792Z,62.70
2022-10-08T04:53:45.847Z,62.70
2022-10-08T04:56:18.521Z,62.90
2022-10-08T04:58:46.793Z,62.90
2022-10-08T05:01:16.815Z,62.80
2022-10-08T05:03:46.788Z,62.90
2022-10-08T05:06:17.775Z,63.00
2022-10-08T05:08:45.488Z,63.10
2022-10-08T05:11:14.037Z,63.10
2022-10-08T05:13:41.287Z,63.00
2022-10-08T05:16:14.521Z,63.00
2022-10-08T05:18:42.076Z,63.10
2022-10-08T05:21:15.113Z,63.00
2022-10-08T05:23:42.967Z,63.20
2022-10-08T05:26:35.842Z,63.10
2022-10-08T05:29:10.431Z,63.30
2022-10-08T05:31:38.297Z,63.20
2022-10-08T05:34:05.922Z,63.30
2022-10-08T05:36:34.334Z,63.40
2022-10-08T05:39:03.013Z,63.50
2022-10-08T05:41:32.340Z,63.40
2022-10-08T05:44:02.242Z,63.40
2022-10-08T05:46:31.353Z,63.60
2022-10-08T05:49:01.155Z,63.70
2022-10-08T05:51:29.509Z,63.70
2022-10-08T05:53:58.841Z,63.90
2022-10-08T05:56:27.495Z,64.00
2022-10-08T05:58:55.137Z,64.10
2022-10-08T06:01:28.389Z,65.00
2022-10-08T06:04:03.128Z,64.30
2022-10-08T06:06:36.895Z,64.30
2022-10-08T06:09:04.965Z,64.30
2022-10-08T06:11:34.451Z,64.50
2022-10-08T06:14:03.762Z,64.80
2022-10-08T06:16:31.419Z,66.20
2022-10-08T06:18:59.049Z,66.70
2022-10-08T06:21:27.094Z,67.40
2022-10-08T06:23:59.070Z,67.20
2022-10-08T06:26:34.451Z,67.80
2022-10-08T06:29:07.412Z,67.70
2022-10-08T06:31:35.847Z,68.00
2022-10-08T06:34:04.744Z,68.00
2022-10-08T06:36:34.104Z,67.80
2022-10-08T06:39:04.362Z,67.70
2022-10-08T06:41:33.392Z,67.90
2022-10-08T06:44:02.307Z,67.50
2022-10-08T06:46:31.379Z,67.60
2022-10-08T06:49:00.679Z,67.60
2022-10-08T06:51:28.614Z,67.70
2022-10-08T06:54:02.845Z,67.20
2022-10-08T06:56:33.850Z,67.00
2022-10-08T06:59:00.878Z,66.60
2022-10-08T07:01:33.240Z,66.20
2022-10-08T07:04:02.383Z,66.30
2022-10-08T07:06:29.899Z,65.90
2022-10-08T07:09:00.278Z,65.60
2022-10-08T07:11:28.164Z,65.20
2022-10-08T07:13:56.321Z,64.80
2022-10-08T07:16:25.717Z,64.70
2022-10-08T07:18:54.383Z,64.40
2022-10-08T07:21:22.315Z,64.10
2022-10-08T07:23:50.255Z,64.10
2022-10-08T07:26:18.421Z,64.00
2022-10-08T07:28:57.502Z,64.20
2022-10-08T07:31:31.393Z,64.30
2022-10-08T07:34:01.415Z,64.20
2022-10-08T07:36:30.107Z,64.20
2022-10-08T07:38:59.372Z,64.30
2022-10-08T07:41:27.918Z,64.40
2022-10-08T07:43:59.796Z,64.30
2022-10-08T07:46:32.695Z,64.30
2022-10-08T07:49:01.691Z,64.40
2022-10-08T07:51:31.935Z,64.40
2022-10-08T07:54:04.332Z,64.20
2022-10-08T07:56:32.853Z,63.70
2022-10-08T07:59:01.010Z,63.40
2022-10-08T08:01:30.317Z,63.30
2022-10-08T08:04:01.004Z,63.20
2022-10-08T08:06:29.035Z,63.30
2022-10-08T08:08:56.894Z,63.20
2022-10-08T08:11:26.090Z,62.90
2022-10-08T08:13:54.106Z,62.50
2022-10-08T08:16:25.730Z,62.40
2022-10-08T08:18:55.604Z,62.00
2022-10-08T08:21:28.417Z,61.90
2022-10-08T08:23:57.977Z,61.90
2022-10-08T08:26:28.919Z,61.60
2022-10-08T08:29:02.002Z,61.50
2022-10-08T08:31:36.913Z,61.30
2022-10-08T08:34:09.353Z,61.10
2022-10-08T08:36:39.114Z,61.10
2022-10-08T08:39:08.385Z,61.20
2022-10-08T08:42:03.426Z,60.70
2022-10-08T08:44:33.237Z,60.90
2022-10-08T08:47:15.442Z,61.00
2022-10-08T08:49:50.479Z,60.90
2022-10-08T08:52:22.770Z,60.60
2022-10-08T08:54:51.427Z,60.60
2022-10-08T08:57:30.962Z,60.10
2022-10-08T09:00:15.573Z,59.80
2022-10-08T09:02:50.267Z,60.10
2022-10-08T09:05:19.050Z,60.00
2022-10-08T09:07:52.178Z,59.30
2022-10-08T09:10:24.285Z,58.80
2022-10-08T09:12:53.755Z,57.80
2022-10-08T09:15:27.733Z,57.80
2022-10-08T09:17:55.282Z,57.50
2022-10-08T09:20:24.698Z,57.10
2022-10-08T09:22:54.318Z,56.30
2022-10-08T09:25:28.786Z,56.80
2022-10-08T09:27:56.949Z,55.50
2022-10-08T09:30:30.215Z,55.00
2022-10-08T09:33:14.187Z,54.00
2022-10-08T09:35:50.950Z,54.00
2022-10-08T09:38:28.220Z,53.70
2022-10-08T09:41:18.537Z,53.20
2022-10-08T09:44:04.662Z,52.20
2022-10-08T09:46:33.421Z,51.20
2022-10-08T09:49:27.335Z,47.80
2022-10-08T09:51:57.530Z,48.60
2022-10-08T09:54:28.106Z,48.20
2022-10-08T09:56:58.529Z,49.10
2022-10-08T09:59:32.912Z,49.20
2022-10-08T10:02:00.185Z,47.10
2022-10-08T10:04:40.394Z,45.80
2022-10-08T10:07:07.846Z,45.50
2022-10-08T10:09:47.961Z,46.00
2022-10-08T10:12:27.926Z,45.00
2022-10-08T10:15:04.139Z,45.50
2022-10-08T10:17:36.797Z,45.40
2022-10-08T10:20:12.324Z,44.90
2022-10-08T10:22:58.238Z,44.60
2022-10-08T10:25:44.013Z,44.00
2022-10-08T10:28:13.721Z,44.50
2022-10-08T10:30:53.593Z,44.00
2022-10-08T10:33:25.490Z,44.70
2022-10-08T10:35:56.762Z,44.90
2022-10-08T10:38:34.400Z,45.10
2022-10-08T10:41:11.572Z,45.30
2022-10-08T10:44:11.826Z,44.80
2022-10-08T10:46:52.361Z,45.10
2022-10-08T10:49:27.135Z,45.40
2022-10-08T10:52:36.531Z,45.70
2022-10-08T10:55:22.786Z,45.20
2022-10-08T10:58:27.908Z,44.50
2022-10-08T11:01:34.335Z,44.40
2022-10-08T11:04:08.884Z,43.90
2022-10-08T11:07:08.551Z,43.90
2022-10-08T11:09:54.170Z,43.50
2022-10-08T11:12:34.955Z,43.90
2022-10-08T11:15:27.385Z,44.30
2022-10-08T11:18:08.650Z,44.30
2022-10-08T11:20:57.318Z,44.80
2022-10-08T11:23:30.333Z,45.60
2022-10-08T11:26:22.411Z,44.90
2022-10-08T11:29:01.735Z,44.50
2022-10-08T11:31:28.783Z,44.30
2022-10-08T11:33:57.983Z,43.80
2022-10-08T11:36:57.373Z,43.80
2022-10-08T11:39:36.716Z,44.10
2022-10-08T11:42:16.083Z,44.70
2022-10-08T11:44:43.233Z,44.30
2022-10-08T11:47:35.512Z,43.80
2022-10-08T11:50:05.597Z,43.30
2022-10-08T11:52:34.022Z,43.70
2022-10-08T11:55:02.167Z,43.10
2022-10-08T11:58:02.951Z,43.40
2022-10-08T12:00:42.987Z,43.90
2022-10-08T12:03:31.559Z,43.10
2022-10-08T12:06:12.656Z,43.20
2022-10-08T12:08:52.961Z,42.70
2022-10-08T12:11:32.854Z,42.90
2022-10-08T12:14:15.284Z,42.70
2022-10-08T12:16:48.688Z,42.40
2022-10-08T12:19:34.568Z,42.50
2022-10-08T12:22:14.934Z,43.00
2022-10-08T12:24:49.693Z,43.80
2022-10-08T12:27:17.541Z,43.80
2022-10-08T12:30:01.482Z,42.90
2022-10-08T12:32:31.728Z,43.20
2022-10-08T12:35:00.004Z,42.70
2022-10-08T12:37:33.887Z,42.40
2022-10-08T12:40:09.695Z,42.20
2022-10-08T12:42:40.235Z,42.20
2022-10-08T12:45:19.699Z,42.90
2022-10-08T12:48:33.998Z,43.40
2022-10-08T12:51:36.326Z,43.60
2022-10-08T12:54:04.638Z,43.70
2022-10-08T12:56:32.115Z,43.80
2022-10-08T12:59:03.382Z,43.70
2022-10-08T13:01:35.239Z,44.10
2022-10-08T13:04:29.335Z,44.70
2022-10-08T13:06:57.183Z,45.00
2022-10-08T13:09:36.145Z,45.20
2022-10-08T13:12:07.998Z,45.10
2022-10-08T13:14:39.412Z,45.20
2022-10-08T13:17:07.686Z,45.10
2022-10-08T13:19:37.535Z,45.00
2022-10-08T13:22:22.138Z,45.30
2022-10-08T13:24:49.241Z,45.60
2022-10-08T13:27:31.670Z,46.00
2022-10-08T13:30:00.323Z,46.30
2022-10-08T13:32:35.346Z,46.70
2022-10-08T13:35:05.868Z,47.10
2022-10-08T13:37:38.038Z,47.40
2022-10-08T13:40:18.683Z,47.60
2022-10-08T13:42:55.532Z,47.60
2022-10-08T13:45:25.508Z,47.70
2022-10-08T13:47:53.686Z,47.80
2022-10-08T13:50:22.628Z,47.60
2022-10-08T13:52:54.738Z,48.20
2022-10-08T13:55:27.729Z,49.50
2022-10-08T13:57:56.014Z,49.70
2022-10-08T14:00:24.232Z,49.60
2022-10-08T14:02:53.352Z,50.00
2022-10-08T14:05:22.237Z,50.20
2022-10-08T14:07:58.395Z,50.40
2022-10-08T14:10:25.692Z,50.80
2022-10-08T14:12:53.953Z,51.00
2022-10-08T14:15:22.530Z,51.30
2022-10-08T14:17:50.737Z,51.40
2022-10-08T14:20:18.427Z,51.60
2022-10-08T14:22:47.205Z,51.60
2022-10-08T14:25:20.146Z,51.40
2022-10-08T14:27:47.559Z,51.40
2022-10-08T14:30:15.823Z,51.50
2022-10-08T14:32:43.429Z,51.40
2022-10-08T14:35:12.003Z,51.40
2022-10-08T14:37:40.508Z,51.30
2022-10-08T14:40:11.857Z,51.50
2022-10-08T14:42:40.487Z,51.40
2022-10-08T14:45:07.829Z,51.30
2022-10-08T14:47:35.123Z,51.10
2022-10-08T14:50:02.938Z,51.00
2022-10-08T14:52:30.303Z,51.00
2022-10-08T14:54:57.469Z,50.90
2022-10-08T14:57:24.505Z,51.00
2022-10-08T14:59:51.708Z,51.00
2022-10-08T15:02:19.005Z,51.10
2022-10-08T15:04:47.180Z,51.10
2022-10-08T15:07:15.045Z,51.30
2022-10-08T15:09:42.992Z,51.20
2022-10-08T15:12:10.292Z,51.10
2022-10-08T15:14:38.488Z,51.30
2022-10-08T15:17:05.638Z,51.40
2022-10-08T15:19:32.744Z,51.30
2022-10-08T15:22:00.085Z,51.30
2022-10-08T15:24:27.202Z,51.40
2022-10-08T15:26:54.355Z,51.40
2022-10-08T15:29:21.347Z,51.70
2022-10-08T15:31:52.185Z,51.60
2022-10-08T15:34:21.230Z,51.60
2022-10-08T15:36:48.387Z,51.70
2022-10-08T15:39:19.681Z,51.90
2022-10-08T15:41:50.367Z,51.90
2022-10-08T15:44:26.531Z,52.10
2022-10-08T15:47:02.896Z,52.10
2022-10-08T15:49:35.212Z,52.20
2022-10-08T15:52:04.303Z,52.30
2022-10-08T15:54:31.513Z,52.40
2022-10-08T15:56:58.502Z,52.50
2022-10-08T15:59:25.460Z,52.80
2022-10-08T16:01:52.473Z,52.80
2022-10-08T16:04:19.625Z,52.70
2022-10-08T16:06:47.065Z,52.80
2022-10-08T16:09:15.827Z,52.80
2022-10-08T16:11:43.788Z,52.90
2022-10-08T16:14:19.644Z,52.90
2022-10-08T16:16:46.913Z,53.20
2022-10-08T16:19:16.733Z,52.90
2022-10-08T16:21:45.680Z,53.00
2022-10-08T16:24:14.299Z,53.10
2022-10-08T16:26:43.130Z,53.10
2022-10-08T16:29:13.167Z,53.10
2022-10-08T16:31:42.115Z,53.20
2022-10-08T16:34:22.118Z,53.20
2022-10-08T16:36:51.323Z,53.20
2022-10-08T16:39:21.152Z,53.20
2022-10-08T16:41:49.464Z,53.30
2022-10-08T16:44:19.222Z,53.20
2022-10-08T16:46:50.526Z,53.30
2022-10-08T16:49:24.095Z,53.40
2022-10-08T16:51:53.849Z,53.40
2022-10-08T16:54:20.804Z,53.40
2022-10-08T16:56:47.843Z,53.60
2022-10-08T16:59:21.602Z,53.60
2022-10-08T17:01:52.072Z,53.70
2022-10-08T17:04:20.377Z,53.80
2022-10-08T17:06:47.434Z,53.70
2022-10-08T17:09:14.609Z,53.90
2022-10-08T17:11:42.024Z,54.00
2022-10-08T17:14:11.784Z,54.10
2022-10-08T17:16:40.635Z,54.30
2022-10-08T17:19:07.679Z,54.40
2022-10-08T17:21:35.237Z,54.40
2022-10-08T17:24:02.923Z,54.70
2022-10-08T17:26:31.643Z,55.00
2022-10-08T17:29:03.970Z,55.00
2022-10-08T17:31:33.495Z,55.10
2022-10-08T17:34:01.207Z,55.20
2022-10-08T17:36:31.059Z,55.40
2022-10-08T17:39:00.431Z,55.60
2022-10-08T17:41:34.181Z,55.90
2022-10-08T17:44:02.908Z,56.10
2022-10-08T17:46:32.546Z,57.00
2022-10-08T17:48:59.704Z,57.60
2022-10-08T17:51:33.500Z,57.50
2022-10-08T17:54:05.134Z,57.50
2022-10-08T17:56:35.871Z,57.60
2022-10-08T17:59:04.803Z,57.90
2022-10-08T18:01:34.672Z,57.80
2022-10-08T18:04:07.460Z,57.90
2022-10-08T18:06:37.633Z,58.60
2022-10-08T18:09:07.642Z,58.00
2022-10-08T18:12:12.841Z,58.10
2022-10-08T18:14:38.409Z,58.00
2022-10-08T18:17:05.509Z,57.80
2022-10-08T18:19:32.472Z,57.70
2022-10-08T18:21:59.604Z,57.80
2022-10-08T18:24:27.182Z,57.80
2022-10-08T18:26:54.702Z,57.80
2022-10-08T18:29:21.927Z,57.70
2022-10-08T18:31:48.910Z,57.60
2022-10-08T18:34:18.137Z,57.50
2022-10-08T18:36:46.106Z,57.50
2022-10-08T18:39:15.971Z,57.50
2022-10-08T18:41:49.369Z,57.20
2022-10-08T18:44:20.392Z,57.30
2022-10-08T18:46:47.655Z,57.10
2022-10-08T18:49:20.502Z,56.90
2022-10-08T18:51:49.995Z,56.70
2022-10-08T18:54:17.823Z,56.70
2022-10-08T18:56:45.010Z,56.90
2022-10-08T18:59:14.826Z,56.80
2022-10-08T19:01:44.854Z,56.90
2022-10-08T19:04:20.989Z,57.00
2022-10-08T19:06:50.510Z,56.80
2022-10-08T19:09:17.822Z,56.80
2022-10-08T19:11:51.268Z,56.80
2022-10-08T19:14:21.921Z,57.40
2022-10-08T19:16:49.246Z,56.50
2022-10-08T19:19:27.605Z,56.50
2022-10-08T19:21:55.677Z,56.40
2022-10-08T19:24:25.598Z,56.40
2022-10-08T19:26:53.906Z,56.50
2022-10-08T19:29:23.654Z,56.60
2022-10-08T19:31:53.964Z,56.50
2022-10-08T19:34:24.089Z,56.40
2022-10-08T19:36:51.243Z,56.20
2022-10-08T19:39:22.388Z,56.00
2022-10-08T19:41:50.083Z,55.90
2022-10-08T19:44:17.719Z,56.00
2022-10-08T19:46:45.376Z,56.00
2022-10-08T19:49:13.202Z,56.20
2022-10-08T19:51:41.789Z,56.10
2022-10-08T19:54:09.361Z,56.20
2022-10-08T19:56:38.156Z,56.30
2022-10-08T19:59:06.315Z,56.20
2022-10-08T20:01:36.295Z,56.40
2022-10-08T20:04:05.219Z,56.30
2022-10-08T20:06:35.263Z,56.20
2022-10-08T20:09:04.196Z,56.30
2022-10-08T20:11:33.022Z,56.20
2022-10-08T20:14:01.167Z,56.30
2022-10-08T20:16:32.993Z,56.30
2022-10-08T20:19:08.960Z,56.50
2022-10-08T20:21:38.003Z,56.50
2022-10-08T20:24:06.276Z,56.50
2022-10-08T20:26:39.162Z,56.50
2022-10-08T20:29:09.858Z,56.40
2022-10-08T20:31:49.708Z,56.40
2022-10-08T20:34:20.213Z,56.50
2022-10-08T20:36:48.570Z,56.50
2022-10-08T20:39:17.689Z,56.40
2022-10-08T20:41:46.518Z,56.40
2022-10-08T20:44:15.745Z,56.50
2022-10-08T20:46:43.233Z,56.60
2022-10-08T20:49:13.382Z,56.50
2022-10-08T20:51:43.258Z,56.60
2022-10-08T20:54:15.143Z,56.50
2022-10-08T20:56:42.911Z,56.50
2022-10-08T20:59:14.996Z,56.50
2022-10-08T21:01:42.896Z,56.50
2022-10-08T21:04:11.512Z,56.50
2022-10-08T21:06:41.804Z,56.50
2022-10-08T21:09:09.011Z,56.40
2022-10-08T21:11:36.830Z,56.30
2022-10-08T21:14:05.711Z,56.40
2022-10-08T21:16:36.446Z,56.30
2022-10-08T21:19:05.972Z,56.30
2022-10-08T21:21:34.327Z,56.30
2022-10-08T21:24:02.352Z,56.20
2022-10-08T21:26:32.931Z,56.10
2022-10-08T21:29:03.800Z,56.10
2022-10-08T21:31:32.840Z,56.00
2022-10-08T21:34:00.423Z,55.90
2022-10-08T21:36:34.143Z,55.90
2022-10-08T21:39:05.482Z,55.80
2022-10-08T21:41:34.345Z,55.80
2022-10-08T21:44:04.097Z,55.80
2022-10-08T21:46:35.209Z,55.90
2022-10-08T21:49:07.403Z,56.00
2022-10-08T21:51:35.420Z,56.10
2022-10-08T21:54:06.061Z,56.10
2022-10-08T21:56:36.863Z,56.10
2022-10-08T21:59:07.998Z,56.20
2022-10-08T22:01:36.556Z,56.30
2022-10-08T22:04:08.920Z,56.40
2022-10-08T22:06:39.001Z,56.40
2022-10-08T22:09:08.109Z,56.50
2022-10-08T22:11:36.938Z,56.50
2022-10-08T22:14:04.085Z,56.60
2022-10-08T22:16:31.358Z,56.50
2022-10-08T22:18:58.402Z,56.60
2022-10-08T22:21:25.829Z,56.50
2022-10-08T22:23:53.301Z,56.50
2022-10-08T22:26:29.092Z,56.60
2022-10-08T22:28:56.888Z,56.50
2022-10-08T22:31:24.536Z,56.70
2022-10-08T22:33:52.001Z,56.50
2022-10-08T22:36:20.200Z,56.40
2022-10-08T22:38:48.542Z,56.30
2022-10-08T22:41:22.545Z,56.30
2022-10-08T22:43:50.170Z,56.40
2022-10-08T22:46:23.602Z,56.30
2022-10-08T22:49:02.006Z,56.40
2022-10-08T22:51:31.037Z,56.30
2022-10-08T22:53:59.224Z,56.40
2022-10-08T22:56:28.726Z,56.40
2022-10-08T22:58:56.276Z,56.30
2022-10-08T23:01:25.248Z,56.30
2022-10-08T23:03:53.158Z,56.40
2022-10-08T23:06:21.655Z,56.30
2022-10-08T23:08:53.932Z,56.30
2022-10-08T23:11:22.537Z,56.30
2022-10-08T23:13:51.224Z,56.40
2022-10-08T23:16:18.836Z,56.40
2022-10-08T23:18:51.421Z,56.50
2022-10-08T23:21:18.739Z,56.50
2022-10-08T23:23:47.374Z,56.60
2022-10-08T23:26:16.214Z,57.30
2022-10-08T23:28:44.327Z,56.60
2022-10-08T23:31:17.288Z,56.60
2022-10-08T23:33:46.627Z,56.60
2022-10-08T23:36:16.795Z,56.70
2022-10-08T23:38:44.316Z,56.70
2022-10-08T23:41:12.616Z,56.70
2022-10-08T23:43:45.402Z,56.70
2022-10-08T23:46:15.119Z,56.70
2022-10-08T23:48:42.621Z,56.60
2022-10-08T23:51:11.331Z,56.70
2022-10-08T23:53:39.122Z,56.80
2022-10-08T23:56:07.304Z,56.80
2022-10-08T23:58:34.779Z,56.80
